Time;durP1;ratioP1;P1;durP2;ratioP2;P2;SDS_P1;SDS_P2;PMS_P1;PMS_P2;Temp;Humidity;BMP_temperature;BMP_pressure;BME280_temperature;BME280_humidity;BME280_pressure;Samples;Min_cycle;Max_cycle;Signal;HPM_P1;HPM_P2
2023/10/09 00:00:50;;;;;;;11.18;7.28;;;;;;;12.31;100.00;101812.66;1263970;23;20329;-90
2023/10/09 00:01:22;;;;;;;11.13;7.82;;;;;;;12.37;100.00;101823.38;1262344;23;20285;-89
2023/10/09 00:01:53;;;;;;;12.35;7.40;;;;;;;12.34;100.00;101818.44;1251829;23;20369;-90
2023/10/09 00:02:25;;;;;;;13.63;6.68;;;;;;;12.36;100.00;101820.91;1249830;23;20267;-90
2023/10/09 00:03:00;;;;;;;13.77;6.97;;;;;;;12.38;100.00;101822.34;1257100;23;20258;-90
2023/10/09 00:03:32;;;;;;;12.57;7.40;;;;;;;12.39;100.00;101825.81;1262874;23;20374;-90
2023/10/09 00:04:04;;;;;;;10.85;7.38;;;;;;;12.34;100.00;101833.63;1257294;23;20398;-89
2023/10/09 00:04:38;;;;;;;9.80;6.78;;;;;;;12.40;100.00;101835.50;1256681;23;20270;-90
2023/10/09 00:05:19;;;;;;;13.63;7.18;;;;;;;12.41;100.00;101829.13;1263122;23;20261;-90
2023/10/09 00:05:53;;;;;;;11.23;6.80;;;;;;;12.11;100.00;101834.00;1249538;23;20264;-90
2023/10/09 00:06:36;;;;;;;12.13;6.95;;;;;;;12.27;100.00;101838.13;1252390;23;20034;-89
2023/10/09 00:07:08;;;;;;;14.68;7.57;;;;;;;12.38;100.00;101837.53;1256712;23;20584;-90
2023/10/09 00:07:40;;;;;;;23.30;7.03;;;;;;;12.34;100.00;101845.16;1259940;23;20262;-90
2023/10/09 00:08:17;;;;;;;16.67;7.63;;;;;;;12.39;100.00;101836.50;1251692;23;20275;-90
2023/10/09 00:08:54;;;;;;;12.95;8.25;;;;;;;12.43;100.00;101837.75;1252542;23;20378;-90
2023/10/09 00:09:30;;;;;;;16.33;8.70;;;;;;;12.47;100.00;101833.63;1255135;23;20259;-89
2023/10/09 00:10:11;;;;;;;14.20;7.47;;;;;;;12.47;100.00;101838.97;1249468;23;20271;-90
2023/10/09 00:10:52;;;;;;;12.85;7.95;;;;;;;12.37;100.00;101841.25;1254457;23;20279;-91
2023/10/09 00:11:29;;;;;;;12.85;7.63;;;;;;;12.46;100.00;101834.66;1261639;23;20150;-90
2023/10/09 00:12:07;;;;;;;12.23;7.45;;;;;;;12.51;100.00;101834.88;1261590;23;20273;-90
2023/10/09 00:12:43;;;;;;;18.60;8.18;;;;;;;12.47;100.00;101830.97;1268512;23;20258;-89
2023/10/09 00:13:15;;;;;;;18.77;9.40;;;;;;;12.48;100.00;101837.94;1259581;23;20360;-89
2023/10/09 00:13:52;;;;;;;15.73;7.97;;;;;;;12.51;100.00;101832.19;1247648;23;20267;-90
2023/10/09 00:14:25;;;;;;;13.25;7.95;;;;;;;12.54;100.00;101823.78;1252188;23;20715;-90
2023/10/09 00:15:07;;;;;;;24.00;10.10;;;;;;;12.40;100.00;101823.97;1253450;23;20255;-90
2023/10/09 00:15:38;;;;;;;17.27;10.18;;;;;;;12.49;100.00;101826.25;1260664;23;20803;-89
2023/10/09 00:16:14;;;;;;;16.52;8.88;;;;;;;12.49;100.00;101826.25;1267131;23;20269;-90
2023/10/09 00:16:55;;;;;;;18.42;8.48;;;;;;;12.51;100.00;101824.19;1261079;23;20262;-90
2023/10/09 00:17:31;;;;;;;15.77;8.45;;;;;;;12.55;100.00;101824.59;1269266;23;20250;-90
2023/10/09 00:18:12;;;;;;;17.23;10.25;;;;;;;12.58;100.00;101829.53;1260398;23;20285;-89
2023/10/09 00:18:47;;;;;;;16.60;8.15;;;;;;;12.56;100.00;101819.03;1260438;23;20614;-90
2023/10/09 00:19:20;;;;;;;15.85;8.38;;;;;;;12.53;100.00;101829.31;1254353;23;20278;-89
2023/10/09 00:19:52;;;;;;;13.18;7.85;;;;;;;12.26;100.00;101821.28;1259156;23;20766;-91
2023/10/09 00:20:37;;;;;;;14.20;8.32;;;;;;;12.23;100.00;101820.88;1255876;23;20282;-89
2023/10/09 00:21:15;;;;;;;18.02;9.02;;;;;;;12.37;100.00;101822.53;1263857;23;20265;-89
2023/10/09 00:21:47;;;;;;;14.60;9.70;;;;;;;12.42;100.00;101819.25;1262659;23;20389;-90
2023/10/09 00:22:29;;;;;;;12.95;7.93;;;;;;;12.41;100.00;101826.44;1272994;23;20259;-90
2023/10/09 00:23:01;;;;;;;21.00;8.88;;;;;;;12.44;100.00;101827.88;1262772;23;20318;-90
2023/10/09 00:23:33;;;;;;;16.23;8.95;;;;;;;12.46;100.00;101823.97;1254228;23;20349;-90
2023/10/09 00:24:13;;;;;;;13.70;9.82;;;;;;;12.41;100.00;101822.94;1250098;23;20335;-89
2023/10/09 00:24:49;;;;;;;15.02;8.80;;;;;;;12.27;100.00;101828.25;1257900;23;20270;-90
2023/10/09 00:25:23;;;;;;;13.93;8.38;;;;;;;12.43;100.00;101820.91;1260426;23;20251;-90
2023/10/09 00:26:16;;;;;;;14.65;8.35;;;;;;;12.45;100.00;101830.34;1260241;23;20258;-90
2023/10/09 00:27:46;;;;;;;16.85;9.35;;;;;;;12.37;100.00;101830.56;1272094;23;20261;-90
2023/10/09 00:28:21;;;;;;;15.38;8.85;;;;;;;12.38;100.00;101835.69;1273176;23;20026;-89
2023/10/09 00:28:53;;;;;;;13.05;9.35;;;;;;;12.24;100.00;101841.19;1271642;23;20288;-90
2023/10/09 00:29:34;;;;;;;17.55;8.73;;;;;;;12.27;100.00;101838.94;1259083;23;20603;-90
2023/10/09 00:30:07;;;;;;;16.55;10.02;;;;;;;12.33;100.00;101848.03;1260703;23;20270;-90
2023/10/09 00:30:41;;;;;;;16.35;8.52;;;;;;;12.27;100.00;101840.78;1259942;23;20259;-90
2023/10/09 00:31:26;;;;;;;15.20;8.20;;;;;;;12.36;100.00;101842.28;1261908;23;20430;-90
2023/10/09 00:32:13;;;;;;;15.02;8.63;;;;;;;12.26;100.00;101844.50;1253306;23;20652;-90
2023/10/09 00:32:58;;;;;;;20.25;9.05;;;;;;;12.02;100.00;101843.19;1262948;23;20254;-89
2023/10/09 00:33:32;;;;;;;12.13;8.07;;;;;;;12.15;100.00;101839.75;1257645;23;20337;-89
2023/10/09 00:34:05;;;;;;;12.57;9.52;;;;;;;12.17;100.00;101843.03;1253804;23;20270;-89
2023/10/09 00:34:39;;;;;;;12.23;7.80;;;;;;;12.21;100.00;101842.44;1258842;23;20781;-90
2023/10/09 00:36:09;;;;;;;16.25;8.80;;;;;;;12.29;100.00;101841.41;1266293;23;20273;-90
2023/10/09 00:36:50;;;;;;;18.35;11.25;;;;;;;12.13;100.00;101837.28;1265854;23;20028;-89
2023/10/09 00:37:24;;;;;;;16.88;9.30;;;;;;;12.13;100.00;101837.28;1262710;23;20266;-90
2023/10/09 00:38:03;;;;;;;18.88;11.07;;;;;;;12.21;100.00;101838.94;1261878;23;20258;-90
2023/10/09 00:38:46;;;;;;;15.38;8.88;;;;;;;12.19;100.00;101841.00;1265314;23;20360;-90
2023/10/09 00:40:12;;;;;;;14.55;9.13;;;;;;;12.20;100.00;101838.13;1267592;23;20253;-90
2023/10/09 00:40:20;;;;;;;17.08;8.80;;;;;;;12.27;100.00;101835.44;1265688;23;20277;-89
2023/10/09 00:41:54;;;;;;;12.88;8.25;;;;;;;12.26;100.00;101841.81;1254892;23;20263;-89
2023/10/09 00:42:36;;;;;;;15.65;9.57;;;;;;;12.26;100.00;101836.47;1250409;23;20270;-90
2023/10/09 00:43:13;;;;;;;16.98;9.20;;;;;;;12.13;100.00;101836.47;1244983;23;20272;-91
2023/10/09 00:43:45;;;;;;;17.70;10.02;;;;;;;12.13;100.00;101831.13;1256072;23;20263;-89
2023/10/09 00:44:16;;;;;;;13.43;9.25;;;;;;;12.19;100.00;101830.31;1247131;23;20736;-90
2023/10/09 00:44:48;;;;;;;19.05;10.10;;;;;;;12.25;100.00;101829.50;1240903;23;20268;-89
2023/10/09 00:45:27;;;;;;;18.88;9.82;;;;;;;12.25;100.00;101829.50;1249072;23;20294;-90
2023/10/09 00:46:11;;;;;;;18.05;9.90;;;;;;;12.36;100.00;101823.56;1255787;23;20371;-90
2023/10/09 00:46:43;;;;;;;17.20;11.10;;;;;;;12.45;100.00;101819.66;1265076;23;20264;-89
2023/10/09 00:47:34;;;;;;;17.35;9.75;;;;;;;12.47;100.00;101822.94;1255018;23;20851;-90
2023/10/09 00:48:08;;;;;;;19.05;11.68;;;;;;;12.50;100.00;101817.19;1261289;23;20420;-90
2023/10/09 00:49:02;;;;;;;17.65;9.98;;;;;;;12.44;100.00;101818.03;1262814;23;20060;-89
2023/10/09 00:49:34;;;;;;;18.13;9.82;;;;;;;12.49;100.00;101815.53;1252815;23;20342;-90
2023/10/09 00:50:21;;;;;;;19.80;10.77;;;;;;;12.52;100.00;101817.81;1253727;23;20278;-90
2023/10/09 00:50:52;;;;;;;18.85;11.43;;;;;;;12.51;100.00;101818.84;1253690;23;20302;-90
2023/10/09 00:51:25;;;;;;;15.57;11.43;;;;;;;12.48;100.00;101819.25;1253586;23;20260;-90
2023/10/09 00:51:57;;;;;;;14.80;10.38;;;;;;;12.53;100.00;101816.78;1250121;23;20661;-90
2023/10/09 00:53:01;;;;;;;20.92;11.70;;;;;;;12.57;100.00;101818.00;1258812;23;20270;-89
2023/10/09 00:53:31;;;;;;;20.77;11.48;;;;;;;12.55;100.00;101814.72;1254298;23;20271;-89
2023/10/09 00:54:13;;;;;;;18.58;9.60;;;;;;;12.50;100.00;101811.84;1254288;23;20274;-90
2023/10/09 00:54:51;;;;;;;15.57;10.07;;;;;;;12.53;100.00;101816.78;1257301;23;20603;-90
2023/10/09 00:55:38;;;;;;;21.40;10.73;;;;;;;12.52;100.00;101815.13;1259020;23;20270;-90
2023/10/09 00:56:19;;;;;;;18.73;11.80;;;;;;;12.58;100.00;101818.84;1267550;23;20722;-90
2023/10/09 00:56:57;;;;;;;17.13;10.55;;;;;;;12.50;100.00;101814.53;1254239;23;20274;-90
2023/10/09 00:57:33;;;;;;;15.25;11.13;;;;;;;12.52;100.00;101815.13;1252931;23;20267;-90
2023/10/09 00:58:16;;;;;;;18.73;10.43;;;;;;;12.48;100.00;101813.09;1254442;23;20281;-90
2023/10/09 00:58:59;;;;;;;20.20;12.10;;;;;;;12.45;100.00;101814.31;1253404;23;20275;-90
2023/10/09 00:59:31;;;;;;;17.25;10.52;;;;;;;12.46;100.00;101815.97;1257691;23;20255;-90
2023/10/09 01:00:11;;;;;;;21.13;11.07;;;;;;;12.51;100.00;101818.84;1249146;23;20271;-90
2023/10/09 01:00:46;;;;;;;24.70;12.10;;;;;;;12.54;100.00;101823.78;1253795;23;20271;-89
2023/10/09 01:01:18;;;;;;;18.20;11.88;;;;;;;12.55;100.00;101822.75;1254353;23;20014;-90
2023/10/09 01:01:56;;;;;;;21.23;11.82;;;;;;;12.60;100.00;101817.63;1255054;23;20578;-90
2023/10/09 01:02:42;;;;;;;20.95;11.23;;;;;;;12.64;100.00;101813.50;1259806;23;20729;-90
2023/10/09 01:03:51;;;;;;;19.95;11.60;;;;;;;12.67;100.00;101813.09;1253455;23;20374;-90
2023/10/09 01:04:25;;;;;;;20.55;10.18;;;;;;;12.57;100.00;101806.50;1256887;23;20292;-90
2023/10/09 01:04:58;;;;;;;23.60;13.18;;;;;;;12.61;100.00;101805.91;1249381;23;20299;-90
2023/10/09 01:05:29;;;;;;;19.35;11.35;;;;;;;12.61;100.00;101813.09;1248576;23;20267;-90
2023/10/09 01:06:44;;;;;;;23.10;11.80;;;;;;;12.63;100.00;101805.69;1253816;23;20271;-90
2023/10/09 01:07:25;;;;;;;19.38;11.80;;;;;;;12.67;100.00;101813.09;1252133;23;20335;-90
2023/10/09 01:07:58;;;;;;;21.55;12.02;;;;;;;12.67;100.00;101818.44;1255521;23;20255;-90
2023/10/09 01:08:31;;;;;;;16.10;10.82;;;;;;;12.61;100.00;101808.59;1259436;23;20329;-91
2023/10/09 01:09:12;;;;;;;20.75;12.05;;;;;;;12.51;100.00;101810.81;1267373;23;20325;-90
2023/10/09 01:09:44;;;;;;;17.98;10.15;;;;;;;12.46;100.00;101815.97;1260668;23;20273;-91
2023/10/09 01:10:16;;;;;;;23.92;11.05;;;;;;;12.52;100.00;101814.31;1264015;23;20258;-90
2023/10/09 01:10:56;;;;;;;22.77;11.63;;;;;;;12.49;100.00;101815.53;1266232;23;20296;-90
2023/10/09 01:11:30;;;;;;;21.85;11.63;;;;;;;12.58;100.00;101808.13;1258313;23;20283;-90
2023/10/09 01:12:34;;;;;;;23.58;12.85;;;;;;;12.65;100.00;101804.47;1267726;23;20269;-90
2023/10/09 01:13:09;;;;;;;27.30;11.85;;;;;;;12.69;100.00;101811.03;1264284;23;20281;-90
2023/10/09 01:13:52;;;;;;;18.70;11.23;;;;;;;12.65;100.00;101804.47;1265244;23;20341;-90
2023/10/09 01:14:24;;;;;;;17.23;9.55;;;;;;;12.63;100.00;101801.19;1268424;23;20260;-89
2023/10/09 01:14:59;;;;;;;19.60;11.85;;;;;;;12.61;100.00;101803.22;1271995;23;20598;-90
2023/10/09 01:15:43;;;;;;;27.17;11.88;;;;;;;12.64;100.00;101802.00;1263386;23;20923;-90
2023/10/09 01:16:16;;;;;;;22.48;10.25;;;;;;;12.64;100.00;101797.47;1259066;23;20255;-90
2023/10/09 01:16:48;;;;;;;22.75;11.52;;;;;;;12.62;100.00;101794.19;1247968;23;20358;-91
2023/10/09 01:17:35;;;;;;;16.58;10.23;;;;;;;12.62;100.00;101799.53;1255444;23;20270;-90
2023/10/09 01:18:07;;;;;;;23.17;13.32;;;;;;;12.68;100.00;101793.34;1261230;23;20254;-89
2023/10/09 01:19:12;;;;;;;20.55;11.98;;;;;;;12.64;100.00;101785.97;1251434;23;20280;-91
2023/10/09 01:19:44;;;;;;;18.70;11.02;;;;;;;12.69;100.00;101795.00;1258419;23;20360;-90
2023/10/09 01:20:27;;;;;;;19.38;11.95;;;;;;;12.74;100.00;101785.53;1261196;23;20262;-90
2023/10/09 01:20:58;;;;;;;18.98;10.63;;;;;;;12.77;100.00;101790.47;1259108;23;20611;-90
2023/10/09 01:21:31;;;;;;;26.02;12.57;;;;;;;12.74;100.00;101790.88;1257925;23;20293;-91
2023/10/09 01:22:12;;;;;;;23.95;12.07;;;;;;;12.76;100.00;101791.50;1260913;23;20270;-90
2023/10/09 01:22:44;;;;;;;19.05;13.23;;;;;;;12.73;100.00;101789.22;1266635;23;20325;-90
2023/10/09 01:23:15;;;;;;;18.52;11.85;;;;;;;12.76;100.00;101794.16;1257566;23;20266;-90
2023/10/09 01:24:38;;;;;;;20.30;10.85;;;;;;;12.79;100.00;101794.56;1262104;23;20258;-90
2023/10/09 01:25:10;;;;;;;19.75;11.98;;;;;;;12.82;100.00;101798.69;1257769;23;20262;-90
2023/10/09 01:25:45;;;;;;;20.08;11.70;;;;;;;12.81;100.00;101800.53;1254449;23;20275;-90
2023/10/09 01:26:18;;;;;;;21.20;12.20;;;;;;;12.78;100.00;101787.56;1259730;23;20675;-90
2023/10/09 01:26:54;;;;;;;20.25;11.88;;;;;;;12.81;100.00;101786.34;1261369;23;20261;-90
2023/10/09 01:27:32;;;;;;;21.38;12.63;;;;;;;12.89;100.00;101786.13;1261314;23;20269;-89
2023/10/09 01:28:04;;;;;;;21.60;12.35;;;;;;;12.85;100.00;101784.88;1263388;23;20265;-90
2023/10/09 01:28:36;;;;;;;16.40;10.32;;;;;;;12.87;100.00;101782.81;1264535;23;20254;-91
2023/10/09 01:29:14;;;;;;;26.42;11.75;;;;;;;12.89;100.00;101780.78;1261091;23;20294;-90
2023/10/09 01:29:46;;;;;;;26.35;12.45;;;;;;;12.88;100.00;101782.66;1268469;23;20262;-90
2023/10/09 01:30:20;;;;;;;15.45;10.48;;;;;;;12.85;100.00;101776.88;1269608;23;20269;-90
2023/10/09 01:30:52;;;;;;;29.88;13.65;;;;;;;12.82;100.00;101777.28;1269469;23;20298;-90
2023/10/09 01:31:26;;;;;;;20.05;11.77;;;;;;;12.85;100.00;101774.19;1267449;23;20263;-90
2023/10/09 01:32:01;;;;;;;25.77;12.88;;;;;;;12.88;100.00;101776.47;1262282;23;20258;-91
2023/10/09 01:32:34;;;;;;;25.05;13.57;;;;;;;12.88;100.00;101777.31;1261918;23;20719;-91
2023/10/09 01:33:12;;;;;;;25.42;13.07;;;;;;;12.91;100.00;101786.75;1261931;23;20599;-90
2023/10/09 01:33:44;;;;;;;19.40;12.85;;;;;;;12.91;100.00;101781.41;1261143;23;20337;-90
2023/10/09 01:34:48;;;;;;;23.80;14.30;;;;;;;12.97;100.00;101780.56;1261928;23;20301;-90
2023/10/09 01:35:23;;;;;;;24.23;11.93;;;;;;;12.82;100.00;101778.09;1257797;23;20246;-90
2023/10/09 01:35:59;;;;;;;21.27;11.85;;;;;;;12.88;100.00;101781.81;1250180;23;20468;-90
2023/10/09 01:36:34;;;;;;;26.15;13.43;;;;;;;13.03;100.00;101779.72;1254698;23;20295;-90
2023/10/09 01:37:19;;;;;;;23.70;12.98;;;;;;;13.02;100.00;101787.97;1256216;23;20296;-90
2023/10/09 01:37:51;;;;;;;28.98;14.27;;;;;;;13.03;100.00;101784.25;1260584;23;20265;-90
2023/10/09 01:38:39;;;;;;;23.30;12.60;;;;;;;13.02;100.00;101787.97;1263593;23;20611;-90
2023/10/09 01:39:25;;;;;;;24.88;12.93;;;;;;;12.98;100.00;101780.34;1267459;23;20333;-90
2023/10/09 01:39:59;;;;;;;22.45;12.65;;;;;;;12.97;100.00;101785.91;1275491;23;20263;-90
2023/10/09 01:40:37;;;;;;;18.00;13.13;;;;;;;12.99;100.00;101783.84;1260335;23;20289;-90
2023/10/09 01:41:15;;;;;;;21.40;12.20;;;;;;;13.03;100.00;101790.41;1261128;23;20349;-90
2023/10/09 01:41:49;;;;;;;22.73;12.73;;;;;;;13.00;100.00;101786.31;1255073;23;20783;-90
2023/10/09 01:43:03;;;;;;;24.88;13.73;;;;;;;13.07;100.00;101785.47;1267700;23;20319;-90
2023/10/09 01:43:35;;;;;;;21.48;13.15;;;;;;;13.09;100.00;101788.75;1264813;23;20018;-90
2023/10/09 01:44:12;;;;;;;25.77;15.25;;;;;;;13.04;100.00;101792.06;1255935;23;20018;-90
2023/10/09 01:44:44;;;;;;;33.47;14.98;;;;;;;13.06;100.00;101787.31;1255133;23;20259;-90
2023/10/09 01:45:51;;;;;;;23.27;12.57;;;;;;;13.00;100.00;101788.16;1261184;23;20280;-90
2023/10/09 01:46:23;;;;;;;27.77;14.52;;;;;;;13.02;100.00;101788.78;1252720;23;20270;-90
2023/10/09 01:46:57;;;;;;;26.42;12.93;;;;;;;13.05;100.00;101790.22;1253974;23;20267;-90
2023/10/09 01:47:31;;;;;;;20.58;13.70;;;;;;;13.06;100.00;101784.66;1248333;23;20270;-90
2023/10/09 01:48:05;;;;;;;22.70;13.57;;;;;;;13.10;100.00;101777.03;1247207;23;20275;-90
2023/10/09 01:48:41;;;;;;;27.70;15.07;;;;;;;13.09;100.00;101784.22;1251301;23;20728;-91
2023/10/09 01:49:17;;;;;;;30.63;14.90;;;;;;;13.11;100.00;101776.81;1246728;23;20048;-90
2023/10/09 01:49:52;;;;;;;28.38;14.45;;;;;;;13.12;100.00;101777.63;1255698;23;20026;-91
2023/10/09 01:50:30;;;;;;;24.88;14.77;;;;;;;13.12;100.00;101775.78;1261425;23;20281;-90
2023/10/09 01:51:05;;;;;;;28.13;14.18;;;;;;;13.16;100.00;101776.22;1264270;23;20373;-89
2023/10/09 01:51:38;;;;;;;24.58;14.25;;;;;;;13.19;100.00;101779.31;1260443;23;20587;-89
2023/10/09 01:52:16;;;;;;;26.67;14.10;;;;;;;13.17;100.00;101773.34;1264164;23;20341;-90
2023/10/09 01:52:48;;;;;;;23.27;13.35;;;;;;;13.17;100.00;101765.31;1263019;23;20517;-91
2023/10/09 01:53:25;;;;;;;19.40;13.05;;;;;;;13.20;100.00;101759.56;1258243;23;20309;-91
2023/10/09 01:53:58;;;;;;;25.70;16.23;;;;;;;13.19;100.00;101767.78;1260960;23;20258;-89
2023/10/09 01:54:40;;;;;;;24.42;13.38;;;;;;;13.18;100.00;101768.81;1258810;23;20108;-90
2023/10/09 01:55:28;;;;;;;33.83;14.45;;;;;;;13.20;100.00;101764.91;1258950;23;20801;-89
2023/10/09 01:56:09;;;;;;;24.52;12.70;;;;;;;13.23;100.00;101764.47;1252681;23;20278;-90
2023/10/09 01:56:46;;;;;;;;;;;;;;;13.23;100.00;101764.47;1259306;23;20258;-90
2023/10/09 01:57:22;;;;;;;23.13;13.35;;;;;;;13.25;100.00;101762.41;1246999;23;20050;-90
2023/10/09 01:57:57;;;;;;;25.48;13.52;;;;;;;13.24;100.00;101770.66;1247047;23;20336;-90
2023/10/09 01:58:32;;;;;;;28.45;14.30;;;;;;;13.23;100.00;101767.16;1260842;23;20021;-89
2023/10/09 01:59:05;;;;;;;29.05;15.15;;;;;;;13.25;100.00;101759.72;1252994;23;20608;-90
2023/10/09 01:59:38;;;;;;;31.13;13.68;;;;;;;13.26;100.00;101758.69;1255020;23;20271;-91
2023/10/09 02:00:22;;;;;;;28.48;14.88;;;;;;;13.30;100.00;101765.28;1246970;23;20276;-90
2023/10/09 02:00:55;;;;;;;27.85;14.88;;;;;;;13.30;100.00;101767.94;1248896;23;20319;-90
2023/10/09 02:01:27;;;;;;;30.23;14.00;;;;;;;13.25;100.00;101757.06;1249134;23;20255;-90
2023/10/09 02:02:00;;;;;;;24.58;13.60;;;;;;;13.27;100.00;101759.53;1255752;23;20309;-89
2023/10/09 02:02:35;;;;;;;29.27;15.10;;;;;;;13.26;100.00;101758.69;1258871;23;20259;-90
2023/10/09 02:03:13;;;;;;;29.42;13.85;;;;;;;13.29;100.00;101758.28;1260888;23;20480;-90
2023/10/09 02:03:45;;;;;;;22.73;15.57;;;;;;;13.25;100.00;101751.72;1255144;23;20630;-90
2023/10/09 02:04:19;;;;;;;25.33;14.10;;;;;;;13.26;100.00;101758.69;1247185;23;20917;-90
2023/10/09 02:05:42;;;;;;;25.23;13.00;;;;;;;13.32;100.00;101751.69;1252813;23;20023;-90
2023/10/09 02:06:25;;;;;;;24.08;14.57;;;;;;;13.34;100.00;101754.13;1258996;23;20353;-90
2023/10/09 02:06:56;;;;;;;25.45;15.15;;;;;;;13.33;100.00;101750.63;1258587;23;20022;-90
2023/10/09 02:07:29;;;;;;;29.25;15.02;;;;;;;13.33;100.00;101747.16;1258899;23;20018;-90
2023/10/09 02:08:05;;;;;;;27.55;14.68;;;;;;;13.35;100.00;101750.44;1253006;23;20015;-90
2023/10/09 02:08:37;;;;;;;25.92;14.65;;;;;;;13.43;100.00;101750.22;1258415;23;20307;-90
2023/10/09 02:09:19;;;;;;;29.40;15.93;;;;;;;13.38;100.00;101747.31;1261377;23;20246;-90
2023/10/09 02:09:51;;;;;;;26.48;14.73;;;;;;;13.39;100.00;101746.28;1258841;23;20022;-90
2023/10/09 02:10:58;;;;;;;24.85;16.50;;;;;;;13.43;100.00;101752.88;1252420;23;20090;-90
2023/10/09 02:11:36;;;;;;;25.30;14.90;;;;;;;13.45;100.00;101750.81;1247957;23;20271;-90
2023/10/09 02:12:08;;;;;;;27.17;15.40;;;;;;;13.41;100.00;101757.59;1252194;23;20275;-90
2023/10/09 02:12:40;;;;;;;26.75;15.48;;;;;;;13.40;100.00;101750.59;1252860;23;20592;-90
2023/10/09 02:13:16;;;;;;;27.73;15.13;;;;;;;13.38;100.00;101752.69;1253139;23;20271;-90
2023/10/09 02:13:53;;;;;;;22.33;13.13;;;;;;;13.40;100.00;101748.75;1258730;23;20897;-90
2023/10/09 02:14:25;;;;;;;29.50;15.63;;;;;;;13.46;100.00;101747.09;1264777;23;20332;-90
2023/10/09 02:14:56;;;;;;;25.63;14.98;;;;;;;13.49;100.00;101746.69;1258585;23;20273;-90
2023/10/09 02:16:15;;;;;;;27.52;15.00;;;;;;;13.46;100.00;101755.13;1256321;23;20365;-90
2023/10/09 02:17:02;;;;;;;24.50;13.00;;;;;;;13.46;100.00;101753.28;1260502;23;20049;-89
2023/10/09 02:17:34;;;;;;;25.23;14.20;;;;;;;13.47;100.00;101748.75;1261329;23;20285;-90
2023/10/09 02:18:16;;;;;;;27.98;15.70;;;;;;;13.44;100.00;101747.31;1258664;23;20067;-90
2023/10/09 02:18:56;;;;;;;24.05;14.13;;;;;;;13.45;100.00;101750.81;1254877;23;20251;-90
2023/10/09 02:19:35;;;;;;;30.00;15.88;;;;;;;13.46;100.00;101741.75;1260847;23;20254;-90
2023/10/09 02:20:17;;;;;;;30.48;15.23;;;;;;;13.48;100.00;101750.38;1258408;23;20844;-90
2023/10/09 02:21:39;;;;;;;22.95;15.27;;;;;;;13.45;100.00;101746.28;1254198;23;20022;-91
2023/10/09 02:22:14;;;;;;;26.52;15.68;;;;;;;13.49;100.00;101735.97;1253352;23;20751;-90
2023/10/09 02:22:46;;;;;;;31.67;15.30;;;;;;;13.47;100.00;101732.69;1266084;23;20132;-90
2023/10/09 02:23:20;;;;;;;26.60;13.57;;;;;;;13.47;100.00;101738.03;1260840;23;20018;-90
2023/10/09 02:23:56;;;;;;;28.13;15.05;;;;;;;13.51;100.00;101733.91;1258863;23;20349;-90
2023/10/09 02:25:21;;;;;;;27.90;14.30;;;;;;;13.48;100.00;101728.97;1246919;23;20444;-90
2023/10/09 02:26:04;;;;;;;28.17;16.23;;;;;;;13.47;100.00;101730.00;1246800;23;20027;-90
2023/10/09 02:27:11;;;;;;;24.13;14.57;;;;;;;13.50;100.00;101729.59;1256914;23;20331;-91
2023/10/09 02:27:53;;;;;;;28.75;16.27;;;;;;;13.54;100.00;101728.13;1260522;23;20065;-89
2023/10/09 02:28:25;;;;;;;23.23;14.77;;;;;;;13.53;100.00;101729.16;1264594;23;20097;-90
2023/10/09 02:29:00;;;;;;;28.52;15.63;;;;;;;13.56;100.00;101726.88;1258611;23;20270;-90
2023/10/09 02:29:35;;;;;;;29.15;16.30;;;;;;;13.52;100.00;101724.84;1256079;23;20034;-90
2023/10/09 02:30:19;;;;;;;26.83;15.75;;;;;;;13.50;100.00;101714.34;1255026;23;20321;-90
2023/10/09 02:30:51;;;;;;;30.30;15.90;;;;;;;13.53;100.00;101715.78;1252668;23;20046;-90
2023/10/09 02:31:25;;;;;;;23.60;14.95;;;;;;;13.55;100.00;101713.69;1252715;23;20071;-91
2023/10/09 02:32:13;;;;;;;25.90;14.10;;;;;;;13.51;100.00;101718.66;1252456;23;20255;-90
2023/10/09 02:32:49;;;;;;;24.55;14.75;;;;;;;13.53;100.00;101715.78;1255234;23;20010;-90
2023/10/09 02:33:27;;;;;;;27.40;14.90;;;;;;;13.59;100.00;101720.25;1257881;23;20387;-90
2023/10/09 02:34:00;;;;;;;26.42;15.73;;;;;;;13.55;100.00;101724.41;1252685;23;20057;-91
2023/10/09 02:34:38;;;;;;;26.00;15.93;;;;;;;13.54;100.00;101722.75;1258834;23;20036;-90
2023/10/09 02:35:35;;;;;;;27.55;15.68;;;;;;;13.62;100.00;101717.16;1248949;23;20486;-90
2023/10/09 02:36:05;;;;;;;27.85;15.07;;;;;;;13.64;100.00;101723.09;1260771;23;20599;-90
2023/10/09 02:36:49;;;;;;;30.20;15.63;;;;;;;13.61;100.00;101712.81;1258990;23;20270;-90
2023/10/09 02:37:25;;;;;;;23.77;14.95;;;;;;;13.64;100.00;101712.41;1268127;23;20041;-90
2023/10/09 02:37:57;;;;;;;27.27;16.65;;;;;;;13.65;100.00;101707.88;1259138;23;20025;-90
2023/10/09 02:38:31;;;;;;;28.02;15.18;;;;;;;13.63;100.00;101709.94;1251012;23;20020;-91
2023/10/09 02:39:05;;;;;;;27.10;16.27;;;;;;;13.60;100.00;101708.50;1246722;23;20275;-90
2023/10/09 02:39:43;;;;;;;24.90;15.63;;;;;;;13.59;100.00;101709.56;1246791;23;20716;-90
2023/10/09 02:40:29;;;;;;;25.73;15.43;;;;;;;13.60;100.00;101708.50;1246678;23;20399;-90
2023/10/09 02:41:45;;;;;;;24.75;14.40;;;;;;;13.58;100.00;101707.91;1254225;23;20014;-90
2023/10/09 02:42:23;;;;;;;;;;;;;;;13.59;100.00;101709.56;1259147;23;20592;-90
2023/10/09 02:42:55;;;;;;;26.77;13.32;;;;;;;13.60;100.00;101711.19;1253027;23;19952;-89
2023/10/09 02:43:27;;;;;;;29.42;15.70;;;;;;;13.65;100.00;101713.22;1246966;23;20272;-91
2023/10/09 02:44:10;;;;;;;29.33;17.73;;;;;;;13.62;100.00;101717.16;1248690;23;20543;-89
2023/10/09 02:44:51;;;;;;;27.92;15.85;;;;;;;13.63;100.00;101708.09;1260887;23;20093;-90
2023/10/09 02:45:29;;;;;;;;;;;;;;;13.67;100.00;101714.63;1253438;23;20684;-91
2023/10/09 02:46:13;;;;;;;26.33;13.95;;;;;;;13.72;100.00;101712.16;1246941;23;20251;-90
2023/10/09 02:46:45;;;;;;;28.63;15.98;;;;;;;13.70;100.00;101706.22;1246338;23;20358;-91
2023/10/09 02:47:20;;;;;;;28.92;15.95;;;;;;;13.67;100.00;101701.25;1248999;23;20267;-91
2023/10/09 02:47:55;;;;;;;30.38;16.33;;;;;;;13.67;100.00;101700.44;1250423;23;20271;-91
2023/10/09 02:48:30;;;;;;;25.75;15.05;;;;;;;13.64;100.00;101696.34;1253264;23;20035;-90
2023/10/09 02:49:06;;;;;;;33.83;16.17;;;;;;;13.69;100.00;101693.00;1260892;23;20038;-90
2023/10/09 02:49:39;;;;;;;29.77;15.23;;;;;;;13.68;100.00;101694.03;1258496;23;20451;-89
2023/10/09 02:50:11;;;;;;;34.70;16.90;;;;;;;13.68;100.00;101692.19;1261105;23;20021;-91
2023/10/09 02:50:44;;;;;;;28.33;15.25;;;;;;;13.67;100.00;101698.56;1258394;23;20013;-89
2023/10/09 02:51:58;;;;;;;28.23;14.80;;;;;;;13.66;100.00;101690.75;1255135;23;20255;-90
2023/10/09 02:52:40;;;;;;;27.05;16.63;;;;;;;13.69;100.00;101690.31;1256031;23;20402;-90
2023/10/09 02:53:18;;;;;;;25.38;15.48;;;;;;;13.70;100.00;101684.78;1262501;23;20281;-91
2023/10/09 02:53:50;;;;;;;28.25;15.95;;;;;;;13.68;100.00;101692.19;1260897;23;20041;-90
2023/10/09 02:54:59;;;;;;;26.20;15.68;;;;;;;13.75;100.00;101684.13;1256134;23;20262;-90
2023/10/09 02:55:38;;;;;;;26.48;13.73;;;;;;;13.68;100.00;101688.69;1266174;23;20137;-90
2023/10/09 02:56:13;;;;;;;28.20;14.93;;;;;;;13.67;100.00;101681.69;1258773;23;20022;-90
2023/10/09 02:56:48;;;;;;;34.25;16.45;;;;;;;13.65;100.00;101687.25;1255115;23;20038;-90
2023/10/09 02:57:23;;;;;;;31.95;16.10;;;;;;;13.65;100.00;101687.25;1247122;23;20023;-90
2023/10/09 02:58:20;;;;;;;29.95;16.67;;;;;;;13.67;100.00;101690.53;1257137;23;20015;-90
2023/10/09 02:59:05;;;;;;;26.17;15.40;;;;;;;13.67;100.00;101695.91;1264934;23;20134;-91
2023/10/09 02:59:38;;;;;;;30.40;15.05;;;;;;;13.63;100.00;101689.34;1263052;23;20018;-91